Hi Nella, New Jersey
Current Conditions -  °F | °C
As of 11:54 PM on Tuesday 21 Oct 2014 (Local Time) from KPHL Reporting Station
Broken Clouds Broken Clouds  
Wind Chill: 59°   Ceiling: 25000
Heat Index: 59°   Visibility: 10mi
Dew Point: 50°   Wind: 10mph
Humidity: 72%   Direction: 40°NE
Pressure: 29.88"   Gusts: NA
Location:  39.841°N, 75.0314°W
Report Text: KPHL 220354Z 04009KT 10SM FEW150 BKN250 15/10 A2988 RMK AO2 LTG DSNT N SLP118 T01500100 $
Loading
Personal Weather Stations






























Interactive Weather Map
Tropical Storm Tracking
New forecast layout! Learn more

10-Day Weather Forecast

Advertisements
Track Severe Weather on mobile